createdAt,value
2022-07-31T00:00:22.084Z,3.93
2022-07-31T00:02:51.250Z,3.70
2022-07-31T00:05:19.578Z,4.20
2022-07-31T00:08:07.634Z,4.00
2022-07-31T00:10:36.478Z,4.23
2022-07-31T00:13:58.133Z,3.67
2022-07-31T00:16:11.485Z,3.77
2022-07-31T00:18:39.741Z,3.93
2022-07-31T00:26:41.962Z,4.20
2022-07-31T00:29:12.940Z,3.77
2022-07-31T00:31:44.922Z,3.77
2022-07-31T00:34:13.130Z,4.07
2022-07-31T00:36:42.622Z,4.10
2022-07-31T00:39:13.421Z,4.10
2022-07-31T00:41:43.974Z,4.30
2022-07-31T00:44:48.763Z,4.53
2022-07-31T00:58:44.501Z,3.90
2022-07-31T01:01:31.555Z,4.03
2022-07-31T01:04:37.325Z,4.73
2022-07-31T01:07:46.089Z,4.00
2022-07-31T01:11:01.702Z,4.13
2022-07-31T01:13:40.590Z,3.97
2022-07-31T01:16:30.058Z,4.23
2022-07-31T01:19:00.009Z,4.17
2022-07-31T01:21:33.832Z,4.20
2022-07-31T01:24:20.161Z,4.30
2022-07-31T01:33:08.701Z,4.10
2022-07-31T01:36:00.698Z,4.57
2022-07-31T01:38:32.956Z,4.10
2022-07-31T01:41:06.791Z,4.50
2022-07-31T01:43:40.198Z,4.43
2022-07-31T01:46:13.673Z,4.30
2022-07-31T02:03:20.114Z,4.70
2022-07-31T02:09:15.178Z,4.93
2022-07-31T02:11:53.537Z,4.40
2022-07-31T02:17:48.191Z,4.73
2022-07-31T02:20:41.841Z,4.30
2022-07-31T02:23:28.922Z,4.10
2022-07-31T02:28:45.725Z,4.27
2022-07-31T02:31:16.022Z,4.50
2022-07-31T02:33:49.202Z,4.40
2022-07-31T02:36:22.679Z,4.17
2022-07-31T02:42:16.233Z,4.27
2022-07-31T02:47:34.437Z,3.97
2022-07-31T02:50:05.693Z,4.63
2022-07-31T02:52:36.342Z,4.80
2022-07-31T02:55:05.951Z,4.30
2022-07-31T02:57:52.357Z,4.53
2022-07-31T03:00:40.312Z,4.03
2022-07-31T03:03:26.312Z,3.80
2022-07-31T03:06:14.381Z,3.90
2022-07-31T03:08:44.898Z,3.90
2022-07-31T03:11:16.859Z,4.90
2022-07-31T03:13:46.828Z,4.53
2022-07-31T03:16:34.216Z,3.83
2022-07-31T03:19:05.589Z,4.50
2022-07-31T03:28:05.592Z,4.17
2022-07-31T03:30:33.962Z,4.17
2022-07-31T03:33:03.486Z,3.77
2022-07-31T03:41:47.830Z,4.10
2022-07-31T03:44:52.547Z,5.07
2022-07-31T03:50:25.894Z,4.00
2022-07-31T03:52:55.469Z,3.80
2022-07-31T03:55:42.209Z,3.57
2022-07-31T03:58:31.292Z,4.10
2022-07-31T04:01:20.779Z,3.87
2022-07-31T04:07:05.730Z,3.83
2022-07-31T04:09:34.499Z,3.77
2022-07-31T04:12:22.961Z,4.03
2022-07-31T04:14:52.711Z,4.33
2022-07-31T04:17:21.518Z,3.90
2022-07-31T04:19:50.269Z,4.23
2022-07-31T04:22:37.252Z,3.87
2022-07-31T04:25:14.595Z,3.77
2022-07-31T04:28:14.405Z,3.80
2022-07-31T04:30:44.831Z,3.93
2022-07-31T04:33:31.622Z,4.10
2022-07-31T04:36:00.010Z,4.47
2022-07-31T04:38:29.529Z,3.73
2022-07-31T04:40:58.127Z,3.80
2022-07-31T04:43:27.221Z,3.70
2022-07-31T04:49:18.740Z,3.70
2022-07-31T04:52:07.103Z,4.17
2022-07-31T04:54:36.186Z,3.97
2022-07-31T04:57:05.865Z,3.80
2022-07-31T04:59:59.484Z,4.40
2022-07-31T05:02:26.157Z,4.47
2022-07-31T05:04:57.170Z,4.10
2022-07-31T05:07:30.755Z,4.30
2022-07-31T05:10:35.570Z,4.60
2022-07-31T05:13:22.791Z,4.60
2022-07-31T05:29:04.259Z,3.80
2022-07-31T05:32:28.904Z,4.20
2022-07-31T05:38:23.147Z,4.13
2022-07-31T05:41:25.062Z,4.00
2022-07-31T05:44:12.128Z,4.57
2022-07-31T05:46:47.068Z,4.07
2022-07-31T05:49:15.928Z,4.93
2022-07-31T05:51:49.847Z,4.43
2022-07-31T05:54:37.343Z,4.40
2022-07-31T05:57:41.725Z,4.00
2022-07-31T06:00:12.352Z,5.00
2022-07-31T06:02:42.966Z,4.43
2022-07-31T06:05:30.808Z,5.10
2022-07-31T06:08:01.461Z,4.80
2022-07-31T06:10:34.237Z,4.37
2022-07-31T06:13:02.633Z,5.23
2022-07-31T06:15:36.762Z,4.90
2022-07-31T06:18:24.235Z,4.87
2022-07-31T06:20:53.206Z,4.57
2022-07-31T06:23:29.771Z,4.73
2022-07-31T06:26:24.345Z,4.23
2022-07-31T06:28:56.524Z,4.67
2022-07-31T06:31:26.798Z,4.80
2022-07-31T06:33:58.063Z,4.83
2022-07-31T06:36:33.830Z,4.47
2022-07-31T06:39:05.513Z,4.47
2022-07-31T06:42:06.283Z,4.33
2022-07-31T06:44:35.577Z,4.70
2022-07-31T06:47:33.493Z,4.80
2022-07-31T06:50:38.077Z,4.20
2022-07-31T06:53:24.901Z,5.20
2022-07-31T06:58:42.660Z,3.73
2022-07-31T07:01:11.463Z,5.27
2022-07-31T07:03:40.127Z,4.60
2022-07-31T07:06:08.619Z,4.30
2022-07-31T07:08:37.274Z,4.23
2022-07-31T07:11:25.895Z,3.60
2022-07-31T07:14:11.989Z,4.03
2022-07-31T07:16:40.530Z,4.73
2022-07-31T07:19:08.858Z,4.40
2022-07-31T07:21:37.297Z,4.73
2022-07-31T07:24:06.642Z,3.93
2022-07-31T07:26:42.423Z,4.00
2022-07-31T07:29:11.666Z,4.20
2022-07-31T07:31:58.093Z,4.33
2022-07-31T07:34:26.759Z,4.20
2022-07-31T07:36:57.964Z,4.70
2022-07-31T07:39:29.902Z,4.60
2022-07-31T07:42:17.659Z,4.80
2022-07-31T07:45:07.971Z,4.37
2022-07-31T07:48:06.772Z,4.20
2022-07-31T07:50:58.963Z,4.77
2022-07-31T07:53:32.933Z,4.70
2022-07-31T07:56:19.408Z,4.63
2022-07-31T07:59:07.511Z,4.70
2022-07-31T08:02:36.647Z,4.80
2022-07-31T08:05:08.114Z,4.70
2022-07-31T08:07:42.109Z,4.13
2022-07-31T08:10:39.314Z,4.27
2022-07-31T08:13:15.426Z,4.10
2022-07-31T08:16:03.889Z,4.23
2022-07-31T08:18:35.851Z,4.00
2022-07-31T08:21:04.179Z,4.70
2022-07-31T08:23:33.987Z,4.07
2022-07-31T08:26:06.531Z,4.63
2022-07-31T08:28:35.890Z,4.10
2022-07-31T08:31:05.843Z,4.23
2022-07-31T08:33:40.663Z,4.43
2022-07-31T08:36:09.429Z,4.27
2022-07-31T08:38:38.509Z,4.40
2022-07-31T08:41:30.100Z,4.67
2022-07-31T08:44:03.212Z,4.20
2022-07-31T08:46:38.942Z,4.73
2022-07-31T08:49:09.661Z,3.90
2022-07-31T08:51:50.890Z,3.90
2022-07-31T08:54:26.126Z,4.10
2022-07-31T08:56:55.174Z,4.13
2022-07-31T08:59:23.593Z,4.43
2022-07-31T09:01:57.020Z,3.93
2022-07-31T09:04:27.664Z,4.30
2022-07-31T09:09:51.610Z,4.00
2022-07-31T09:12:33.498Z,3.80
2022-07-31T09:15:20.151Z,4.47
2022-07-31T09:17:53.672Z,4.40
2022-07-31T09:20:24.583Z,4.30
2022-07-31T09:23:23.917Z,4.93
2022-07-31T09:25:54.173Z,3.97
2022-07-31T09:28:32.266Z,4.22
2022-07-31T09:31:00.945Z,4.20
2022-07-31T09:33:50.539Z,4.18
2022-07-31T09:36:45.091Z,4.57
2022-07-31T09:39:36.684Z,4.70
2022-07-31T09:42:44.311Z,4.07
2022-07-31T09:45:33.989Z,3.45
2022-07-31T09:48:15.167Z,4.40
2022-07-31T09:50:56.026Z,4.43
2022-07-31T09:53:25.849Z,3.85
2022-07-31T09:56:22.498Z,4.60
2022-07-31T09:58:50.870Z,3.80
2022-07-31T10:01:20.692Z,3.67
2022-07-31T10:03:51.249Z,3.78
2022-07-31T10:06:22.004Z,4.22
2022-07-31T10:08:52.128Z,4.57
2022-07-31T10:11:27.143Z,3.72
2022-07-31T10:14:16.821Z,3.90
2022-07-31T10:16:47.985Z,3.30
2022-07-31T10:19:38.430Z,3.78
2022-07-31T10:22:33.686Z,4.40
2022-07-31T10:25:04.173Z,3.63
2022-07-31T10:27:33.371Z,4.00
2022-07-31T10:30:11.091Z,4.00
2022-07-31T10:33:03.221Z,4.15
2022-07-31T10:36:22.849Z,3.88
2022-07-31T10:39:12.754Z,4.20
2022-07-31T10:42:18.070Z,3.80
2022-07-31T10:44:51.650Z,3.80
2022-07-31T10:47:40.757Z,4.47
2022-07-31T10:50:30.682Z,3.95
2022-07-31T10:53:19.426Z,4.00
2022-07-31T10:56:11.209Z,3.80
2022-07-31T10:58:59.958Z,3.50
2022-07-31T11:01:57.317Z,3.65
2022-07-31T11:04:41.842Z,3.45
2022-07-31T11:07:30.447Z,4.00
2022-07-31T11:10:16.880Z,3.58
2022-07-31T11:13:06.072Z,3.35
2022-07-31T11:15:49.091Z,4.20
2022-07-31T11:18:35.944Z,3.67
2022-07-31T11:21:22.904Z,3.92
2022-07-31T11:24:02.941Z,4.05
2022-07-31T11:26:42.140Z,3.75
2022-07-31T11:29:58.993Z,4.10
2022-07-31T11:32:13.723Z,3.63
2022-07-31T11:34:50.546Z,3.60
2022-07-31T11:37:20.537Z,3.55
2022-07-31T11:39:52.442Z,3.30
2022-07-31T11:42:26.558Z,3.55
2022-07-31T11:45:22.989Z,3.20
2022-07-31T11:48:15.535Z,4.35
2022-07-31T11:50:45.833Z,3.70
2022-07-31T11:53:14.246Z,3.78
2022-07-31T11:55:48.550Z,3.67
2022-07-31T11:58:18.001Z,3.38
2022-07-31T12:00:52.753Z,4.22
2022-07-31T12:03:23.342Z,4.13
2022-07-31T12:05:53.375Z,4.10
2022-07-31T12:08:22.690Z,3.80
2022-07-31T12:10:53.413Z,3.85
2022-07-31T12:13:23.489Z,3.90
2022-07-31T12:16:03.150Z,4.00
2022-07-31T12:18:33.724Z,3.80
2022-07-31T12:21:05.777Z,4.28
2022-07-31T12:24:13.178Z,4.10
2022-07-31T12:27:00.783Z,4.10
2022-07-31T12:29:33.129Z,4.25
2022-07-31T12:32:03.214Z,3.70
2022-07-31T12:34:33.954Z,3.90
2022-07-31T12:37:04.128Z,3.60
2022-07-31T12:39:47.473Z,4.22
2022-07-31T12:42:30.855Z,4.60
2022-07-31T12:45:18.188Z,4.20
2022-07-31T12:47:52.195Z,3.90
2022-07-31T12:50:21.452Z,4.10
2022-07-31T12:52:50.541Z,4.00
2022-07-31T12:55:19.670Z,3.90
2022-07-31T12:57:51.823Z,3.90
2022-07-31T13:00:22.999Z,3.95
2022-07-31T13:02:53.558Z,4.05
2022-07-31T13:05:22.571Z,4.20
2022-07-31T13:07:51.764Z,3.80
2022-07-31T13:10:23.887Z,4.07
2022-07-31T13:12:54.090Z,4.10
2022-07-31T13:15:29.694Z,3.63
2022-07-31T13:18:01.889Z,4.15
2022-07-31T13:20:48.580Z,3.70
2022-07-31T13:23:17.266Z,3.63
2022-07-31T13:25:45.615Z,4.10
2022-07-31T13:28:14.049Z,3.72
2022-07-31T13:30:42.682Z,3.83
2022-07-31T13:33:12.385Z,3.88
2022-07-31T13:35:40.770Z,3.90
2022-07-31T13:38:09.118Z,3.42
2022-07-31T13:40:54.772Z,3.40
2022-07-31T13:43:23.085Z,3.50
2022-07-31T13:45:51.519Z,3.80
2022-07-31T13:48:21.197Z,3.50
2022-07-31T13:50:49.491Z,3.70
2022-07-31T13:53:36.379Z,3.63
2022-07-31T13:56:04.894Z,3.60
2022-07-31T13:58:33.303Z,3.80
2022-07-31T14:01:04.571Z,3.88
2022-07-31T14:03:35.455Z,3.80
2022-07-31T14:06:04.875Z,3.47
2022-07-31T14:08:52.556Z,3.50
2022-07-31T14:11:39.604Z,3.75
2022-07-31T14:14:07.998Z,4.22
2022-07-31T14:16:36.459Z,3.53
2022-07-31T14:19:06.161Z,4.30
2022-07-31T14:21:35.548Z,3.58
2022-07-31T14:24:03.963Z,3.72
2022-07-31T14:26:32.295Z,3.85
2022-07-31T14:34:35.758Z,4.00
2022-07-31T14:37:04.829Z,3.70
2022-07-31T14:39:33.352Z,3.60
2022-07-31T14:42:01.856Z,3.42
2022-07-31T14:44:31.495Z,4.13
2022-07-31T14:46:59.816Z,3.70
2022-07-31T14:50:08.882Z,3.22
2022-07-31T14:52:36.379Z,3.50
2022-07-31T14:55:05.669Z,3.13
2022-07-31T14:57:34.214Z,3.40
2022-07-31T15:00:02.686Z,3.35
2022-07-31T15:02:31.191Z,3.33
2022-07-31T15:06:39.591Z,3.30
2022-07-31T15:10:36.146Z,3.50
2022-07-31T15:13:04.627Z,3.22
2022-07-31T15:15:33.788Z,3.08
2022-07-31T15:21:26.116Z,6.00
2022-07-31T15:23:55.778Z,6.45
2022-07-31T15:26:24.122Z,4.85
2022-07-31T15:28:52.436Z,2.72
2022-07-31T15:31:20.866Z,3.00
2022-07-31T15:33:49.234Z,3.30
2022-07-31T15:36:17.602Z,3.42
2022-07-31T15:38:46.263Z,2.78
2022-07-31T15:41:18.848Z,2.83
2022-07-31T15:43:47.586Z,2.90
2022-07-31T15:46:15.985Z,2.70
2022-07-31T15:48:44.330Z,3.90
2022-07-31T15:51:12.689Z,4.07
2022-07-31T15:53:41.058Z,4.50
2022-07-31T15:56:09.335Z,3.10
2022-07-31T15:58:39.049Z,2.80
2022-07-31T16:01:07.493Z,2.30
2022-07-31T16:04:16.658Z,2.30
2022-07-31T16:06:47.436Z,2.50
2022-07-31T16:09:17.463Z,2.30
2022-07-31T16:12:04.307Z,2.80
2022-07-31T16:14:35.974Z,2.20
2022-07-31T16:17:04.560Z,1.80
2022-07-31T16:19:34.522Z,2.00
2022-07-31T16:22:03.206Z,1.98
2022-07-31T16:24:31.580Z,1.85
2022-07-31T16:26:59.867Z,1.80
2022-07-31T16:29:59.135Z,1.90
2022-07-31T16:32:18.263Z,1.70
2022-07-31T16:34:51.627Z,1.80
2022-07-31T16:37:21.175Z,1.77
2022-07-31T16:40:10.945Z,1.60
2022-07-31T16:42:57.802Z,1.70
2022-07-31T16:45:26.098Z,1.60
2022-07-31T16:47:55.771Z,2.40
2022-07-31T16:50:24.535Z,2.50
2022-07-31T16:52:55.029Z,3.40
2022-07-31T16:55:59.940Z,1.58
2022-07-31T16:58:14.126Z,1.40
2022-07-31T17:00:43.033Z,1.90
2022-07-31T17:03:58.984Z,3.30
2022-07-31T17:06:01.106Z,2.95
2022-07-31T17:08:29.815Z,2.30
2022-07-31T17:10:58.120Z,2.40
2022-07-31T17:13:44.440Z,1.90
2022-07-31T17:16:13.269Z,1.80
2022-07-31T17:18:42.983Z,1.48
2022-07-31T17:21:22.951Z,1.80
2022-07-31T17:23:54.314Z,2.58
2022-07-31T17:26:24.062Z,1.80
2022-07-31T17:28:52.403Z,1.50
2022-07-31T17:31:20.976Z,1.50
2022-07-31T17:34:00.727Z,1.40
2022-07-31T17:36:31.077Z,1.30
2022-07-31T17:38:59.351Z,1.40
2022-07-31T17:41:27.669Z,1.30
2022-07-31T17:43:56.047Z,1.50
2022-07-31T17:46:34.430Z,3.05
2022-07-31T17:49:08.280Z,3.15
2022-07-31T17:51:36.775Z,1.48
2022-07-31T17:54:08.846Z,1.60
2022-07-31T17:56:37.283Z,1.90
2022-07-31T17:59:05.909Z,1.70
2022-07-31T18:01:53.322Z,2.27
2022-07-31T18:04:23.586Z,1.80
2022-07-31T18:06:54.763Z,1.50
2022-07-31T18:09:24.008Z,1.87
2022-07-31T18:11:52.798Z,1.70
2022-07-31T18:14:21.246Z,1.80
2022-07-31T18:16:53.709Z,1.60
2022-07-31T18:19:24.053Z,1.80
2022-07-31T18:21:53.114Z,1.70
2022-07-31T18:24:22.584Z,2.07
2022-07-31T18:26:52.144Z,1.97
2022-07-31T18:29:21.510Z,1.63
2022-07-31T18:31:50.084Z,1.90
2022-07-31T18:34:18.568Z,1.93
2022-07-31T18:36:54.408Z,1.70
2022-07-31T18:39:23.914Z,1.70
2022-07-31T18:41:52.306Z,2.07
2022-07-31T18:44:21.896Z,1.93
2022-07-31T18:46:50.222Z,1.50
2022-07-31T18:52:08.954Z,1.80
2022-07-31T18:54:37.832Z,1.93
2022-07-31T18:57:07.708Z,1.70
2022-07-31T18:59:36.359Z,1.90
2022-07-31T19:02:05.977Z,1.90
2022-07-31T19:04:36.274Z,1.70
2022-07-31T19:07:05.149Z,1.60
2022-07-31T19:09:34.915Z,3.17
2022-07-31T19:12:07.981Z,1.60
2022-07-31T19:14:37.163Z,1.70
2022-07-31T19:17:05.599Z,1.83
2022-07-31T19:19:44.994Z,2.17
2022-07-31T19:22:23.358Z,2.33
2022-07-31T19:24:53.469Z,1.87
2022-07-31T19:27:22.225Z,1.93
2022-07-31T19:30:13.906Z,1.87
2022-07-31T19:32:42.955Z,1.90
2022-07-31T19:35:11.866Z,1.93
2022-07-31T19:37:40.182Z,2.03
2022-07-31T19:40:11.531Z,2.03
2022-07-31T19:42:40.442Z,2.00
2022-07-31T19:45:09.449Z,2.20
2022-07-31T19:47:38.378Z,2.27
2022-07-31T19:50:07.726Z,2.10
2022-07-31T19:52:36.043Z,2.30
2022-07-31T19:55:04.708Z,2.23
2022-07-31T19:57:52.633Z,2.43
2022-07-31T20:00:21.993Z,2.50
2022-07-31T20:02:51.136Z,2.60
2022-07-31T20:05:19.466Z,2.60
2022-07-31T20:07:47.759Z,3.40
2022-07-31T20:10:16.450Z,2.50
2022-07-31T20:12:46.148Z,2.80
2022-07-31T20:15:14.499Z,2.30
2022-07-31T20:17:42.799Z,2.67
2022-07-31T20:20:15.587Z,2.70
2022-07-31T20:22:44.570Z,2.50
2022-07-31T20:25:19.834Z,2.53
2022-07-31T20:27:50.602Z,3.20
2022-07-31T20:30:37.118Z,2.80
2022-07-31T20:33:24.261Z,2.80
2022-07-31T20:35:52.827Z,2.97
2022-07-31T20:38:21.859Z,3.07
2022-07-31T20:40:53.986Z,3.00
2022-07-31T20:43:26.350Z,3.33
2022-07-31T20:45:57.265Z,2.83
2022-07-31T20:48:31.240Z,3.20
2022-07-31T20:51:00.462Z,3.40
2022-07-31T20:53:29.753Z,3.17
2022-07-31T20:55:59.070Z,3.60
2022-07-31T20:58:29.359Z,3.70
2022-07-31T21:00:57.778Z,3.33
2022-07-31T21:03:26.191Z,3.60
2022-07-31T21:05:54.498Z,3.60
2022-07-31T21:08:22.818Z,4.03
2022-07-31T21:10:51.188Z,4.03
2022-07-31T21:13:19.581Z,3.90
2022-07-31T21:15:51.376Z,4.13
2022-07-31T21:18:21.049Z,3.80
2022-07-31T21:20:53.481Z,4.07
2022-07-31T21:23:23.154Z,3.80
2022-07-31T21:25:52.554Z,4.10
2022-07-31T21:31:49.081Z,3.53
2022-07-31T21:34:18.993Z,3.77
2022-07-31T21:36:49.053Z,3.60
2022-07-31T21:39:37.966Z,3.43
2022-07-31T21:42:07.842Z,4.03
2022-07-31T21:44:36.761Z,3.80
2022-07-31T21:47:07.779Z,3.67
2022-07-31T21:49:37.166Z,3.73
2022-07-31T21:52:24.041Z,3.40
2022-07-31T21:54:52.286Z,3.67
2022-07-31T21:57:20.633Z,3.37
2022-07-31T21:59:49.162Z,3.50
2022-07-31T22:02:18.914Z,3.73
2022-07-31T22:05:06.113Z,3.30
2022-07-31T22:07:42.735Z,3.40
2022-07-31T22:10:11.382Z,3.77
2022-07-31T22:12:39.905Z,3.83
2022-07-31T22:15:27.590Z,3.93
2022-07-31T22:19:13.174Z,4.03
2022-07-31T22:22:02.409Z,4.27
2022-07-31T22:24:31.253Z,3.70
2022-07-31T22:27:17.022Z,4.33
2022-07-31T22:29:46.986Z,5.00
2022-07-31T22:32:15.923Z,4.10
2022-07-31T22:34:45.874Z,4.97
2022-07-31T22:37:15.457Z,4.30
2022-07-31T22:39:44.163Z,5.07
2022-07-31T22:42:13.254Z,4.80
2022-07-31T22:44:41.948Z,5.10
2022-07-31T22:47:11.284Z,5.53
2022-07-31T22:55:32.387Z,6.53
2022-07-31T22:58:00.747Z,5.23
2022-07-31T23:00:29.065Z,4.97
2022-07-31T23:02:57.647Z,5.70
2022-07-31T23:06:03.673Z,5.37
2022-07-31T23:08:34.212Z,4.43
2022-07-31T23:14:08.254Z,3.80
2022-07-31T23:16:36.614Z,4.10
2022-07-31T23:19:05.216Z,3.60
2022-07-31T23:24:39.170Z,3.50
2022-07-31T23:27:09.203Z,3.20
2022-07-31T23:29:41.687Z,3.40
2022-07-31T23:32:10.288Z,3.20
2022-07-31T23:34:39.304Z,3.40
2022-07-31T23:37:09.210Z,2.90
2022-07-31T23:39:38.945Z,3.37
2022-07-31T23:45:12.501Z,3.67
2022-07-31T23:47:45.472Z,3.20
2022-07-31T23:53:39.613Z,3.27
2022-07-31T23:56:46.342Z,2.97
2022-07-31T23:59:15.586Z,2.90
